Time;durP1;ratioP1;P1;durP2;ratioP2;P2;SDS_P1;SDS_P2;PMS_P1;PMS_P2;Temp;Humidity;BMP_temperature;BMP_pressure;BME280_temperature;BME280_humidity;BME280_pressure;Samples;Min_cycle;Max_cycle;Signal;HPM_P1;HPM_P2
2023/06/27 00:01:55;;;;;;;;;;;;;;;;;;5111884;28;2003;-57
2023/06/27 00:04:23;;;;;;;;;;;;;;;;;;5111616;28;1882;-54
2023/06/27 00:06:51;;;;;;;;;;;;;;;;;;5110377;28;1889;-56
2023/06/27 00:09:19;;;;;;;;;;;;;;;;;;5111449;28;1881;-56
2023/06/27 00:11:47;;;;;;;;;;;;;;;;;;5111438;28;2049;-56
2023/06/27 00:14:19;;;;;;;;;;;;;;;;;;5111621;28;1950;-57
2023/06/27 00:16:46;;;;;;;;;;;;;;;;;;5111312;28;2267;-53
2023/06/27 00:19:13;;;;;;;;;;;;;;;;;;5111646;28;1998;-57
2023/06/27 00:21:41;;;;;;;;;;;;;;;;;;5111217;28;1912;-54
2023/06/27 00:24:10;;;;;;;;;;;;;;;;;;5111467;28;1953;-55
2023/06/27 00:26:38;;;;;;;;;;;;;;;;;;5092857;28;1984;-52
2023/06/27 00:29:05;;;;;;;;;;;;;;;;;;5092819;28;2279;-55
2023/06/27 00:31:33;;;;;;;;;;;;;;;;;;5111496;28;2217;-56
2023/06/27 00:34:01;;;;;;;;;;;;;;;;;;5110825;28;1920;-50
2023/06/27 00:36:29;;;;;;;;;;;;;;;;;;5111346;28;1849;-57
2023/06/27 00:38:56;;;;;;;;;;;;;;;;;;5092679;28;1979;-57
2023/06/27 00:41:24;;;;;;;;;;;;;;;;;;5092791;28;1923;-57
2023/06/27 00:43:55;;;;;;;;;;;;;;;;;;5111128;28;1933;-56
2023/06/27 00:46:28;;;;;;;;;;;;;;;;;;5111001;28;2050;-55
2023/06/27 00:48:56;;;;;;;;;;;;;;;;;;5110939;28;2186;-55
2023/06/27 00:51:24;;;;;;;;;;;;;;;;;;5110666;28;1796;-57
2023/06/27 00:53:51;;;;;;;;;;;;;;;;;;5110991;28;1981;-56
2023/06/27 00:56:20;;;;;;;;;;;;;;;;;;5110444;28;2252;-57
2023/06/27 00:58:50;;;;;;;;;;;;;;;;;;5092516;28;2133;-56
2023/06/27 01:01:20;;;;;;;;;;;;;;;;;;5075388;28;2467;-56
2023/06/27 01:03:47;;;;;;;;;;;;;;;;;;5110882;28;2381;-54
2023/06/27 01:06:33;;;;;;;;;;;;;;;;;;5110642;28;1942;-54
2023/06/27 01:09:03;;;;;;;;;;;;;;;;;;5110539;28;2188;-54
2023/06/27 01:11:37;;;;;;;;;;;;;;;;;;5110423;28;1889;-56
2023/06/27 01:14:06;;;;;;;;;;;;;;;;;;5110705;28;2080;-57
2023/06/27 01:16:35;;;;;;;;;;;;;;;;;;5110489;28;1820;-51
2023/06/27 01:19:04;;;;;;;;;;;;;;;;;;5091270;28;2042;-57
2023/06/27 01:21:32;;;;;;;;;;;;;;;;;;5110515;28;2061;-54
2023/06/27 01:24:00;;;;;;;;;;;;;;;;;;5092067;28;2236;-56
2023/06/27 01:26:27;;;;;;;;;;;;;;;;;;5110568;28;2025;-55
2023/06/27 01:28:55;;;;;;;;;;;;;;;;;;5110315;28;2373;-55
2023/06/27 01:31:24;;;;;;;;;;;;;;;;;;5110542;28;2002;-54
2023/06/27 01:33:59;;;;;;;;;;;;;;;;;;5092370;28;1786;-56
2023/06/27 01:36:32;;;;;;;;;;;;;;;;;;5110331;28;2174;-56
2023/06/27 01:39:06;;;;;;;;;;;;;;;;;;5110144;28;2019;-57
2023/06/27 01:41:36;;;;;;;;;;;;;;;;;;5110445;28;2299;-56
2023/06/27 01:44:06;;;;;;;;;;;;;;;;;;5090215;28;2026;-53
2023/06/27 01:46:33;;;;;;;;;;;;;;;;;;5109312;28;2227;-57
2023/06/27 01:49:01;;;;;;;;;;;;;;;;;;5110407;28;2052;-51
2023/06/27 01:51:29;;;;;;;;;;;;;;;;;;5092067;28;2011;-53
2023/06/27 01:53:56;;;;;;;;;;;;;;;;;;5110208;28;1914;-55
2023/06/27 01:56:24;;;;;;;;;;;;;;;;;;5109948;28;1964;-56
2023/06/27 01:58:52;;;;;;;;;;;;;;;;;;5091874;28;1950;-58
2023/06/27 02:01:19;;;;;;;;;;;;;;;;;;5092099;28;1993;-55
2023/06/27 02:03:47;;;;;;;;;;;;;;;;;;5109638;28;1919;-56
2023/06/27 02:06:15;;;;;;;;;;;;;;;;;;5110379;28;2030;-56
2023/06/27 02:08:43;;;;;;;;;;;;;;;;;;5091464;28;2057;-57
2023/06/27 02:11:13;;;;;;;;;;;;;;;;;;5110376;28;1948;-58
2023/06/27 02:13:41;;;;;;;;;;;;;;;;;;5113164;28;1997;-58
2023/06/27 02:16:08;;;;;;;;;;;;;;;;;;5113595;28;2089;-56
2023/06/27 02:18:35;;;;;;;;;;;;;;;;;;5113723;28;2051;-45
2023/06/27 02:21:02;;;;;;;;;;;;;;;;;;5095462;28;1952;-58
2023/06/27 02:23:30;;;;;;;;;;;;;;;;;;5091984;28;2125;-57
2023/06/27 02:25:57;;;;;;;;;;;;;;;;;;5112401;28;2002;-56
2023/06/27 02:28:24;;;;;;;;;;;;;;;;;;5113409;28;2037;-53
2023/06/27 02:30:51;;;;;;;;;;;;;;;;;;5113417;28;2112;-56
2023/06/27 02:33:18;;;;;;;;;;;;;;;;;;5113511;28;1854;-58
2023/06/27 02:35:45;;;;;;;;;;;;;;;;;;5113813;28;2070;-56
2023/06/27 02:38:17;;;;;;;;;;;;;;;;;;5113210;28;2065;-49
2023/06/27 02:40:44;;;;;;;;;;;;;;;;;;5113709;28;2098;-57
2023/06/27 02:43:11;;;;;;;;;;;;;;;;;;5095048;28;2349;-57
2023/06/27 02:45:40;;;;;;;;;;;;;;;;;;5111807;28;2125;-49
2023/06/27 02:48:09;;;;;;;;;;;;;;;;;;5113045;28;2113;-55
2023/06/27 02:50:37;;;;;;;;;;;;;;;;;;5112958;28;2202;-57
2023/06/27 02:53:04;;;;;;;;;;;;;;;;;;5113007;28;2547;-53
2023/06/27 02:55:32;;;;;;;;;;;;;;;;;;5112887;28;2148;-56
2023/06/27 02:58:00;;;;;;;;;;;;;;;;;;5094448;28;2094;-46
2023/06/27 03:00:29;;;;;;;;;;;;;;;;;;5094568;28;2397;-46
2023/06/27 03:02:57;;;;;;;;;;;;;;;;;;5094622;28;2214;-47
2023/06/27 03:05:24;;;;;;;;;;;;;;;;;;5094648;28;2318;-47
2023/06/27 03:07:52;;;;;;;;;;;;;;;;;;5094367;28;2163;-47
2023/06/27 03:10:20;;;;;;;;;;;;;;;;;;5112562;28;2527;-49
2023/06/27 03:12:48;;;;;;;;;;;;;;;;;;5112622;28;2156;-47
2023/06/27 03:15:16;;;;;;;;;;;;;;;;;;5094635;28;1999;-46
2023/06/27 03:17:43;;;;;;;;;;;;;;;;;;5112538;28;2052;-45
2023/06/27 03:20:10;;;;;;;;;;;;;;;;;;5094263;28;2363;-49
2023/06/27 03:22:38;;;;;;;;;;;;;;;;;;5093737;28;2377;-47
2023/06/27 03:25:10;;;;;;;;;;;;;;;;;;5092893;28;2069;-47
2023/06/27 03:27:37;;;;;;;;;;;;;;;;;;5109611;28;2226;-46
2023/06/27 03:30:07;;;;;;;;;;;;;;;;;;5112301;28;2236;-46
2023/06/27 03:32:35;;;;;;;;;;;;;;;;;;5093062;28;2052;-47
2023/06/27 03:35:03;;;;;;;;;;;;;;;;;;5093383;28;2337;-46
2023/06/27 03:37:31;;;;;;;;;;;;;;;;;;5112307;28;2046;-45
2023/06/27 03:39:58;;;;;;;;;;;;;;;;;;5111912;28;2265;-49
2023/06/27 03:42:25;;;;;;;;;;;;;;;;;;5093751;28;2176;-48
2023/06/27 03:44:53;;;;;;;;;;;;;;;;;;5112044;28;2113;-44
2023/06/27 03:47:21;;;;;;;;;;;;;;;;;;5112159;28;2237;-47
2023/06/27 03:49:49;;;;;;;;;;;;;;;;;;5093308;28;2161;-48
2023/06/27 03:52:16;;;;;;;;;;;;;;;;;;5112250;28;2438;-50
2023/06/27 03:54:43;;;;;;;;;;;;;;;;;;5089388;28;2254;-48
2023/06/27 03:57:14;;;;;;;;;;;;;;;;;;5090399;28;2424;-47
2023/06/27 03:59:41;;;;;;;;;;;;;;;;;;5089714;28;2154;-47
2023/06/27 04:02:08;;;;;;;;;;;;;;;;;;5089085;28;2065;-46
2023/06/27 04:04:35;;;;;;;;;;;;;;;;;;5086558;28;2106;-45
2023/06/27 04:07:02;;;;;;;;;;;;;;;;;;5086432;28;1822;-46
2023/06/27 04:09:30;;;;;;;;;;;;;;;;;;5091511;28;2086;-49
2023/06/27 04:11:59;;;;;;;;;;;;;;;;;;5091047;28;1993;-47
2023/06/27 04:14:27;;;;;;;;;;;;;;;;;;5089851;28;1957;-46
2023/06/27 04:16:55;;;;;;;;;;;;;;;;;;5091186;28;2044;-47
2023/06/27 04:19:22;;;;;;;;;;;;;;;;;;5090999;28;1960;-55
2023/06/27 04:21:51;;;;;;;;;;;;;;;;;;5089928;28;2509;-47
2023/06/27 04:24:18;;;;;;;;;;;;;;;;;;5089582;28;2022;-48
2023/06/27 04:26:45;;;;;;;;;;;;;;;;;;5089691;28;2050;-46
2023/06/27 04:29:13;;;;;;;;;;;;;;;;;;5090883;28;1849;-46
2023/06/27 04:31:40;;;;;;;;;;;;;;;;;;5090611;28;2103;-46
2023/06/27 04:34:08;;;;;;;;;;;;;;;;;;5091104;28;2167;-47
2023/06/27 04:36:41;;;;;;;;;;;;;;;;;;5089975;28;2331;-46
2023/06/27 04:39:08;;;;;;;;;;;;;;;;;;5090834;28;2359;-46
2023/06/27 04:41:36;;;;;;;;;;;;;;;;;;5090837;28;2109;-46
2023/06/27 04:44:04;;;;;;;;;;;;;;;;;;5089039;28;2166;-47
2023/06/27 04:46:31;;;;;;;;;;;;;;;;;;5090573;28;2110;-49
2023/06/27 04:48:59;;;;;;;;;;;;;;;;;;5090487;28;2071;-47
2023/06/27 04:51:26;;;;;;;;;;;;;;;;;;5090579;28;2162;-46
2023/06/27 04:53:54;;;;;;;;;;;;;;;;;;5095130;28;2105;-47
2023/06/27 04:56:22;;;;;;;;;;;;;;;;;;5110837;28;2254;-48
2023/06/27 04:58:50;;;;;;;;;;;;;;;;;;5110317;28;2035;-46
2023/06/27 05:01:17;;;;;;;;;;;;;;;;;;5110759;28;2018;-48
2023/06/27 05:03:45;;;;;;;;;;;;;;;;;;5110437;28;2395;-54
2023/06/27 05:06:12;;;;;;;;;;;;;;;;;;5110441;28;2010;-48
2023/06/27 05:08:40;;;;;;;;;;;;;;;;;;5110624;28;2339;-47
2023/06/27 05:11:07;;;;;;;;;;;;;;;;;;5110360;28;2413;-45
2023/06/27 05:13:34;;;;;;;;;;;;;;;;;;5110840;28;1943;-47
2023/06/27 05:16:01;;;;;;;;;;;;;;;;;;5110557;28;2248;-49
2023/06/27 05:18:29;;;;;;;;;;;;;;;;;;5110586;28;2151;-49
2023/06/27 05:20:56;;;;;;;;;;;;;;;;;;5110914;28;2655;-53
2023/06/27 05:34:57;;;;;;;;;;;;;;;;;;5157988;27;1833;-44
2023/06/27 05:37:25;;;;;;;;;;;;;;;;;;5134687;27;1969;-54
2023/06/27 05:39:52;;;;;;;;;;;;;;;;;;5128864;27;2118;-45
2023/06/27 05:42:19;;;;;;;;;;;;;;;;;;5128284;27;2170;-46
2023/06/27 05:44:46;;;;;;;;;;;;;;;;;;5128517;27;2088;-49
2023/06/27 05:47:14;;;;;;;;;;;;;;;;;;5128229;27;2013;-56
2023/06/27 05:49:41;;;;;;;;;;;;;;;;;;5128325;27;2224;-49
2023/06/27 05:52:08;;;;;;;;;;;;;;;;;;5128463;27;2004;-56
2023/06/27 05:54:35;;;;;;;;;;;;;;;;;;5127966;27;2189;-46
2023/06/27 05:57:03;;;;;;;;;;;;;;;;;;5128414;27;2287;-45
2023/06/27 05:59:30;;;;;;;;;;;;;;;;;;5127980;27;2305;-45
2023/06/27 06:01:58;;;;;;;;;;;;;;;;;;5128204;27;2084;-45
2023/06/27 06:04:25;;;;;;;;;;;;;;;;;;5127993;27;2023;-46
2023/06/27 06:06:52;;;;;;;;;;;;;;;;;;5127891;27;2155;-48
2023/06/27 06:09:20;;;;;;;;;;;;;;;;;;5128330;27;2348;-45
2023/06/27 06:11:47;;;;;;;;;;;;;;;;;;5127332;27;2034;-44
2023/06/27 06:14:14;;;;;;;;;;;;;;;;;;5128120;27;2127;-53
2023/06/27 06:16:41;;;;;;;;;;;;;;;;;;5127611;27;2185;-44
2023/06/27 06:19:08;;;;;;;;;;;;;;;;;;5127255;27;2025;-56
2023/06/27 06:21:37;;;;;;;;;;;;;;;;;;5128010;27;2098;-53
2023/06/27 06:24:04;;;;;;;;;;;;;;;;;;5127242;27;2072;-46
2023/06/27 06:26:31;;;;;;;;;;;;;;;;;;5128237;27;2095;-49
2023/06/27 06:28:58;;;;;;;;;;;;;;;;;;5127032;27;2223;-44
2023/06/27 06:31:26;;;;;;;;;;;;;;;;;;5127727;27;2143;-57
2023/06/27 06:33:53;;;;;;;;;;;;;;;;;;5126220;27;2070;-45
2023/06/27 06:36:21;;;;;;;;;;;;;;;;;;5113013;28;2216;-56
2023/06/27 06:38:48;;;;;;;;;;;;;;;;;;5113971;28;2218;-47
2023/06/27 06:41:15;;;;;;;;;;;;;;;;;;5113303;28;2147;-44
2023/06/27 06:43:42;;;;;;;;;;;;;;;;;;5113531;27;2277;-43
2023/06/27 06:46:10;;;;;;;;;;;;;;;;;;5113813;28;2204;-44
2023/06/27 06:48:37;;;;;;;;;;;;;;;;;;5113323;27;2031;-44
2023/06/27 06:51:04;;;;;;;;;;;;;;;;;;5113618;28;2241;-44
2023/06/27 06:53:31;;;;;;;;;;;;;;;;;;5113238;28;2139;-45
2023/06/27 06:55:58;;;;;;;;;;;;;;;;;;5113382;28;2194;-44
2023/06/27 06:58:26;;;;;;;;;;;;;;;;;;5113587;28;2175;-43
2023/06/27 07:00:53;;;;;;;;;;;;;;;;;;5113668;27;2013;-45
2023/06/27 07:03:20;;;;;;;;;;;;;;;;;;5113362;28;2272;-56
2023/06/27 07:05:48;;;;;;;;;;;;;;;;;;5112782;28;2137;-51
2023/06/27 07:08:15;;;;;;;;;;;;;;;;;;5113306;28;2100;-52
2023/06/27 07:10:42;;;;;;;;;;;;;;;;;;5112788;28;2096;-45
2023/06/27 07:13:09;;;;;;;;;;;;;;;;;;5113131;28;2044;-55
2023/06/27 07:15:37;;;;;;;;;;;;;;;;;;5113238;28;2139;-44
2023/06/27 07:18:04;;;;;;;;;;;;;;;;;;5112672;28;2109;-44
2023/06/27 07:20:31;;;;;;;;;;;;;;;;;;5112988;28;2102;-44
2023/06/27 07:22:58;;;;;;;;;;;;;;;;;;5112713;28;2024;-45
2023/06/27 07:25:26;;;;;;;;;;;;;;;;;;5113171;28;2201;-50
2023/06/27 07:27:53;;;;;;;;;;;;;;;;;;5113004;28;2398;-44
2023/06/27 07:30:20;;;;;;;;;;;;;;;;;;5094294;28;2161;-46
2023/06/27 07:32:48;;;;;;;;;;;;;;;;;;5112998;28;2167;-48
2023/06/27 07:35:15;;;;;;;;;;;;;;;;;;5112365;28;2193;-45
2023/06/27 07:37:42;;;;;;;;;;;;;;;;;;5115023;27;2063;-55
2023/06/27 07:40:10;;;;;;;;;;;;;;;;;;5112313;28;2064;-44
2023/06/27 07:42:39;;;;;;;;;;;;;;;;;;5112720;28;2087;-51
2023/06/27 07:45:07;;;;;;;;;;;;;;;;;;5110609;27;2030;-52
2023/06/27 07:47:35;;;;;;;;;;;;;;;;;;5124481;27;2246;-45
2023/06/27 07:50:04;;;;;;;;;;;;;;;;;;5112613;28;2230;-45
2023/06/27 07:52:32;;;;;;;;;;;;;;;;;;5111921;28;2252;-44
2023/06/27 07:54:59;;;;;;;;;;;;;;;;;;5112638;27;2388;-48
2023/06/27 07:57:26;;;;;;;;;;;;;;;;;;5112276;28;2154;-55
2023/06/27 07:59:53;;;;;;;;;;;;;;;;;;5112334;28;2219;-51
2023/06/27 08:02:23;;;;;;;;;;;;;;;;;;5111968;28;2223;-49
2023/06/27 08:04:50;;;;;;;;;;;;;;;;;;5111389;28;2021;-56
2023/06/27 08:07:18;;;;;;;;;;;;;;;;;;5112063;28;2247;-56
2023/06/27 08:09:45;;;;;;;;;;;;;;;;;;5111629;28;2235;-47
2023/06/27 08:12:12;;;;;;;;;;;;;;;;;;5112145;28;2080;-54
2023/06/27 08:14:40;;;;;;;;;;;;;;;;;;5112021;28;2227;-56
2023/06/27 08:17:07;;;;;;;;;;;;;;;;;;5111696;28;2045;-56
2023/06/27 08:19:34;;;;;;;;;;;;;;;;;;5111804;28;2240;-54
2023/06/27 08:22:02;;;;;;;;;;;;;;;;;;5111724;28;2238;-47
2023/06/27 08:24:29;;;;;;;;;;;;;;;;;;5111970;28;2302;-45
2023/06/27 08:26:56;;;;;;;;;;;;;;;;;;5111646;28;2143;-59
2023/06/27 08:29:24;;;;;;;;;;;;;;;;;;5111840;28;2036;-57
2023/06/27 08:31:54;;;;;;;;;;;;;;;;;;5111701;27;2005;-50
2023/06/27 08:34:21;;;;;;;;;;;;;;;;;;5110805;28;2056;-52
2023/06/27 08:36:48;;;;;;;;;;;;;;;;;;5111498;28;2248;-56
2023/06/27 08:39:16;;;;;;;;;;;;;;;;;;5110870;28;2305;-57
2023/06/27 08:41:45;;;;;;;;;;;;;;;;;;5111256;28;2190;-56
2023/06/27 08:44:13;;;;;;;;;;;;;;;;;;5110949;28;2008;-55
2023/06/27 08:46:42;;;;;;;;;;;;;;;;;;5111034;28;2107;-46
2023/06/27 08:49:10;;;;;;;;;;;;;;;;;;5111303;28;2215;-47
2023/06/27 08:51:38;;;;;;;;;;;;;;;;;;5110559;28;2033;-56
2023/06/27 08:54:12;;;;;;;;;;;;;;;;;;5111211;28;2048;-46
2023/06/27 08:56:41;;;;;;;;;;;;;;;;;;5110291;28;2124;-58
2023/06/27 08:59:10;;;;;;;;;;;;;;;;;;5110274;28;2207;-47
2023/06/27 09:01:38;;;;;;;;;;;;;;;;;;5110794;28;2217;-58
2023/06/27 09:04:06;;;;;;;;;;;;;;;;;;5111094;28;2074;-46
2023/06/27 09:06:33;;;;;;;;;;;;;;;;;;5111301;28;2024;-49
2023/06/27 09:09:00;;;;;;;;;;;;;;;;;;5110155;28;2137;-46
2023/06/27 09:11:28;;;;;;;;;;;;;;;;;;5110993;28;2082;-48
2023/06/27 09:13:55;;;;;;;;;;;;;;;;;;5110503;28;2180;-45
2023/06/27 09:16:22;;;;;;;;;;;;;;;;;;5110911;28;2019;-47
2023/06/27 09:18:50;;;;;;;;;;;;;;;;;;5110895;28;2258;-46
2023/06/27 09:21:20;;;;;;;;;;;;;;;;;;5110919;28;2269;-46
2023/06/27 09:23:49;;;;;;;;;;;;;;;;;;5110596;28;2302;-48
2023/06/27 09:26:16;;;;;;;;;;;;;;;;;;5110198;28;2017;-48
2023/06/27 09:28:45;;;;;;;;;;;;;;;;;;5110745;28;2290;-47
2023/06/27 09:31:13;;;;;;;;;;;;;;;;;;5110444;28;2196;-59
2023/06/27 09:33:44;;;;;;;;;;;;;;;;;;5110695;28;2170;-56
2023/06/27 09:36:28;;;;;;;;;;;;;;;;;;5111016;28;2089;-57
2023/06/27 09:39:08;;;;;;;;;;;;;;;;;;5110625;28;2178;-50
2023/06/27 09:41:44;;;;;;;;;;;;;;;;;;5110566;28;2226;-57
2023/06/27 09:44:12;;;;;;;;;;;;;;;;;;5110492;28;2029;-58
2023/06/27 09:46:41;;;;;;;;;;;;;;;;;;5110126;28;2108;-51
2023/06/27 09:49:08;;;;;;;;;;;;;;;;;;5110750;28;2131;-58
2023/06/27 09:51:36;;;;;;;;;;;;;;;;;;5110456;28;2115;-57
2023/06/27 09:54:04;;;;;;;;;;;;;;;;;;5110644;28;2088;-58
2023/06/27 09:56:32;;;;;;;;;;;;;;;;;;5110218;28;2045;-58
2023/06/27 09:59:06;;;;;;;;;;;;;;;;;;5110662;28;2044;-54
2023/06/27 10:01:36;;;;;;;;;;;;;;;;;;5111935;28;2363;-55
2023/06/27 10:04:04;;;;;;;;;;;;;;;;;;5131038;28;2167;-58
2023/06/27 10:06:33;;;;;;;;;;;;;;;;;;5130896;28;2005;-59
2023/06/27 10:09:01;;;;;;;;;;;;;;;;;;5130565;27;2058;-57
2023/06/27 10:11:28;;;;;;;;;;;;;;;;;;5134926;27;2204;-59
2023/06/27 10:13:56;;;;;;;;;;;;;;;;;;5134008;27;2034;-52
2023/06/27 10:16:25;;;;;;;;;;;;;;;;;;5134880;27;2065;-49
2023/06/27 10:18:53;;;;;;;;;;;;;;;;;;5127934;27;2045;-46
2023/06/27 10:21:20;;;;;;;;;;;;;;;;;;5114261;28;2019;-54
2023/06/27 10:23:50;;;;;;;;;;;;;;;;;;5114203;28;2146;-57
2023/06/27 10:26:18;;;;;;;;;;;;;;;;;;5113480;28;2197;-47
2023/06/27 10:28:49;;;;;;;;;;;;;;;;;;5113873;28;2067;-48
2023/06/27 10:31:55;;;;;;;;;;;;;;;;;;5113658;28;2110;-51
2023/06/27 10:34:28;;;;;;;;;;;;;;;;;;5011799;28;2186;-57
2023/06/27 10:36:58;;;;;;;;;;;;;;;;;;5010825;28;2077;-52
2023/06/27 10:39:30;;;;;;;;;;;;;;;;;;5069411;28;2254;-54
2023/06/27 10:42:02;;;;;;;;;;;;;;;;;;5113843;27;2099;-46
2023/06/27 10:44:29;;;;;;;;;;;;;;;;;;5113224;28;2158;-54
2023/06/27 10:47:15;;;;;;;;;;;;;;;;;;5113750;28;2033;-58
2023/06/27 10:49:45;;;;;;;;;;;;;;;;;;5113458;28;2175;-56
2023/06/27 10:52:31;;;;;;;;;;;;;;;;;;5113642;28;2020;-47
2023/06/27 10:55:18;;;;;;;;;;;;;;;;;;5133564;27;2084;-46
2023/06/27 10:57:51;;;;;;;;;;;;;;;;;;5133415;27;2201;-55
2023/06/27 11:00:23;;;;;;;;;;;;;;;;;;5133949;27;2013;-57
2023/06/27 11:02:54;;;;;;;;;;;;;;;;;;5133574;27;2028;-47
2023/06/27 11:05:37;;;;;;;;;;;;;;;;;;5133612;27;2273;-48
2023/06/27 11:08:07;;;;;;;;;;;;;;;;;;5121387;27;1834;-58
2023/06/27 11:10:36;;;;;;;;;;;;;;;;;;5113371;27;2020;-52
2023/06/27 11:13:15;;;;;;;;;;;;;;;;;;5112780;28;2139;-56
2023/06/27 11:15:43;;;;;;;;;;;;;;;;;;5113488;28;2101;-48
2023/06/27 11:18:15;;;;;;;;;;;;;;;;;;5112762;28;2130;-48
2023/06/27 11:20:43;;;;;;;;;;;;;;;;;;5112992;28;2028;-48
2023/06/27 11:23:14;;;;;;;;;;;;;;;;;;5112594;28;2039;-52
2023/06/27 11:25:42;;;;;;;;;;;;;;;;;;5113218;28;2013;-49
2023/06/27 11:28:13;;;;;;;;;;;;;;;;;;5112681;28;2036;-56
2023/06/27 11:30:40;;;;;;;;;;;;;;;;;;5113136;28;2183;-47
2023/06/27 11:33:08;;;;;;;;;;;;;;;;;;5112178;28;2020;-46
2023/06/27 11:35:35;;;;;;;;;;;;;;;;;;5112870;28;2012;-56
2023/06/27 11:38:06;;;;;;;;;;;;;;;;;;5112814;28;2012;-58
2023/06/27 11:40:33;;;;;;;;;;;;;;;;;;5112269;28;2028;-49
2023/06/27 11:43:02;;;;;;;;;;;;;;;;;;5112777;28;2229;-54
2023/06/27 11:45:31;;;;;;;;;;;;;;;;;;5112066;28;2104;-48
2023/06/27 11:47:58;;;;;;;;;;;;;;;;;;5110890;28;2048;-54
2023/06/27 11:50:26;;;;;;;;;;;;;;;;;;5110336;28;2019;-47
2023/06/27 11:52:57;;;;;;;;;;;;;;;;;;5110900;28;2216;-46
2023/06/27 11:55:26;;;;;;;;;;;;;;;;;;5110828;28;2033;-46
2023/06/27 11:57:54;;;;;;;;;;;;;;;;;;5110249;28;2299;-58
2023/06/27 12:00:25;;;;;;;;;;;;;;;;;;5110257;28;2031;-49
2023/06/27 12:02:54;;;;;;;;;;;;;;;;;;5110194;28;2072;-58
2023/06/27 12:05:22;;;;;;;;;;;;;;;;;;5111111;28;2033;-59
2023/06/27 12:07:55;;;;;;;;;;;;;;;;;;5111463;28;2381;-57
2023/06/27 12:10:23;;;;;;;;;;;;;;;;;;5100491;28;2258;-51
2023/06/27 12:12:51;;;;;;;;;;;;;;;;;;5111017;28;2005;-58
2023/06/27 12:15:18;;;;;;;;;;;;;;;;;;5111656;28;2171;-48
2023/06/27 12:17:56;;;;;;;;;;;;;;;;;;5111963;28;2182;-58
2023/06/27 12:20:23;;;;;;;;;;;;;;;;;;5114194;27;1847;-58
2023/06/27 12:22:50;;;;;;;;;;;;;;;;;;5132371;27;2143;-59
2023/06/27 12:25:18;;;;;;;;;;;;;;;;;;5131542;27;2179;-58
2023/06/27 12:27:45;;;;;;;;;;;;;;;;;;5132211;27;2150;-58
2023/06/27 12:30:13;;;;;;;;;;;;;;;;;;5131735;27;2034;-58
2023/06/27 12:32:40;;;;;;;;;;;;;;;;;;5131293;27;2054;-59
2023/06/27 12:35:08;;;;;;;;;;;;;;;;;;5132082;27;2124;-53
2023/06/27 12:37:36;;;;;;;;;;;;;;;;;;5131633;27;2183;-58
2023/06/27 12:40:05;;;;;;;;;;;;;;;;;;5131918;27;2147;-58
2023/06/27 12:42:33;;;;;;;;;;;;;;;;;;5131481;27;2195;-47
2023/06/27 12:45:00;;;;;;;;;;;;;;;;;;5132014;27;2235;-58
2023/06/27 12:47:30;;;;;;;;;;;;;;;;;;5131120;27;2191;-55
2023/06/27 12:49:57;;;;;;;;;;;;;;;;;;5125187;27;1775;-56
2023/06/27 12:52:25;;;;;;;;;;;;;;;;;;5111287;28;2056;-58
2023/06/27 12:54:52;;;;;;;;;;;;;;;;;;5110889;28;2025;-56
2023/06/27 12:57:19;;;;;;;;;;;;;;;;;;5111516;28;1971;-58
2023/06/27 12:59:49;;;;;;;;;;;;;;;;;;5110925;28;2142;-54
2023/06/27 13:02:16;;;;;;;;;;;;;;;;;;5111418;28;2393;-58
2023/06/27 13:04:44;;;;;;;;;;;;;;;;;;5110437;28;2076;-59
2023/06/27 13:07:11;;;;;;;;;;;;;;;;;;5111117;28;2186;-59
2023/06/27 13:09:39;;;;;;;;;;;;;;;;;;5111184;28;2090;-58
2023/06/27 13:12:06;;;;;;;;;;;;;;;;;;5124570;27;1965;-56
2023/06/27 13:14:34;;;;;;;;;;;;;;;;;;5110654;28;2156;-53
2023/06/27 13:17:02;;;;;;;;;;;;;;;;;;5112058;27;2013;-58
2023/06/27 13:19:31;;;;;;;;;;;;;;;;;;5117424;27;2026;-58
2023/06/27 13:21:59;;;;;;;;;;;;;;;;;;5111002;28;2065;-59
2023/06/27 13:24:27;;;;;;;;;;;;;;;;;;5110892;28;2068;-58
2023/06/27 13:26:54;;;;;;;;;;;;;;;;;;5110998;28;2053;-58
2023/06/27 13:29:22;;;;;;;;;;;;;;;;;;5110702;28;2036;-59
2023/06/27 13:31:49;;;;;;;;;;;;;;;;;;5110922;28;2284;-57
2023/06/27 13:34:16;;;;;;;;;;;;;;;;;;5110004;28;2044;-55
2023/06/27 13:36:43;;;;;;;;;;;;;;;;;;5111105;28;2222;-58
2023/06/27 13:39:11;;;;;;;;;;;;;;;;;;5110846;28;2232;-59
2023/06/27 13:41:38;;;;;;;;;;;;;;;;;;5110380;28;2044;-56
2023/06/27 13:44:05;;;;;;;;;;;;;;;;;;5110776;28;2068;-59
2023/06/27 13:46:33;;;;;;;;;;;;;;;;;;5114253;28;2106;-55
2023/06/27 13:49:00;;;;;;;;;;;;;;;;;;5114866;28;2067;-58
2023/06/27 13:51:27;;;;;;;;;;;;;;;;;;5114767;28;2029;-57
2023/06/27 13:53:54;;;;;;;;;;;;;;;;;;5126702;27;2057;-52
2023/06/27 13:56:22;;;;;;;;;;;;;;;;;;5135563;27;2025;-59
2023/06/27 13:58:50;;;;;;;;;;;;;;;;;;5134944;27;2020;-58
2023/06/27 14:01:17;;;;;;;;;;;;;;;;;;5135047;27;2128;-58
2023/06/27 14:03:44;;;;;;;;;;;;;;;;;;5134622;27;2179;-59
2023/06/27 14:06:15;;;;;;;;;;;;;;;;;;5134924;27;2227;-58
2023/06/27 14:08:42;;;;;;;;;;;;;;;;;;5135047;27;2180;-58
2023/06/27 14:11:11;;;;;;;;;;;;;;;;;;5134346;27;2021;-58
2023/06/27 14:13:41;;;;;;;;;;;;;;;;;;5134800;27;2191;-59
2023/06/27 14:16:09;;;;;;;;;;;;;;;;;;5134386;27;2170;-55
2023/06/27 14:18:36;;;;;;;;;;;;;;;;;;5130744;27;2053;-58
2023/06/27 14:21:08;;;;;;;;;;;;;;;;;;5113788;28;2291;-57
2023/06/27 14:23:36;;;;;;;;;;;;;;;;;;5114137;28;2017;-58
2023/06/27 14:26:04;;;;;;;;;;;;;;;;;;5113914;28;2131;-57
2023/06/27 14:28:32;;;;;;;;;;;;;;;;;;5114107;28;2133;-58
2023/06/27 14:31:00;;;;;;;;;;;;;;;;;;5113798;27;2175;-58
2023/06/27 14:33:27;;;;;;;;;;;;;;;;;;5113177;28;2117;-56
2023/06/27 14:35:55;;;;;;;;;;;;;;;;;;5113923;28;2041;-54
2023/06/27 14:38:22;;;;;;;;;;;;;;;;;;5113766;28;2036;-56
2023/06/27 14:40:50;;;;;;;;;;;;;;;;;;5113748;28;2024;-57
2023/06/27 14:43:19;;;;;;;;;;;;;;;;;;5113831;28;2209;-57
2023/06/27 14:45:46;;;;;;;;;;;;;;;;;;5113268;28;2103;-57
2023/06/27 14:48:14;;;;;;;;;;;;;;;;;;5113498;28;2159;-56
2023/06/27 14:50:42;;;;;;;;;;;;;;;;;;5113406;28;2141;-56
2023/06/27 14:53:09;;;;;;;;;;;;;;;;;;5113520;27;2375;-57
2023/06/27 14:55:36;;;;;;;;;;;;;;;;;;5112882;27;2395;-55
2023/06/27 14:58:04;;;;;;;;;;;;;;;;;;5113562;28;2056;-55
2023/06/27 15:00:31;;;;;;;;;;;;;;;;;;5113631;27;2044;-57
2023/06/27 15:02:58;;;;;;;;;;;;;;;;;;5113082;28;2079;-48
2023/06/27 15:05:26;;;;;;;;;;;;;;;;;;5113487;28;2241;-56
2023/06/27 15:07:53;;;;;;;;;;;;;;;;;;5112792;28;2091;-58
2023/06/27 15:10:20;;;;;;;;;;;;;;;;;;5112809;28;2044;-57
2023/06/27 15:12:48;;;;;;;;;;;;;;;;;;5117297;27;2035;-58
2023/06/27 15:15:15;;;;;;;;;;;;;;;;;;5133281;27;2065;-56
2023/06/27 15:17:43;;;;;;;;;;;;;;;;;;5133453;27;2073;-57
2023/06/27 15:20:10;;;;;;;;;;;;;;;;;;5115518;27;2353;-57
2023/06/27 15:22:38;;;;;;;;;;;;;;;;;;5112999;28;2041;-56
2023/06/27 15:25:05;;;;;;;;;;;;;;;;;;5112918;28;2078;-57
2023/06/27 15:27:33;;;;;;;;;;;;;;;;;;5112191;28;2231;-52
2023/06/27 15:30:00;;;;;;;;;;;;;;;;;;5112976;28;2026;-53
2023/06/27 15:32:27;;;;;;;;;;;;;;;;;;5112420;28;2013;-57
2023/06/27 15:34:55;;;;;;;;;;;;;;;;;;5112618;28;2228;-57
2023/06/27 15:37:22;;;;;;;;;;;;;;;;;;5112397;28;2299;-57
2023/06/27 15:39:53;;;;;;;;;;;;;;;;;;5112756;28;2225;-53
2023/06/27 15:42:21;;;;;;;;;;;;;;;;;;5112931;28;2025;-57
2023/06/27 15:44:48;;;;;;;;;;;;;;;;;;5112253;27;2199;-58
2023/06/27 15:47:15;;;;;;;;;;;;;;;;;;5112530;27;2191;-57
2023/06/27 15:49:43;;;;;;;;;;;;;;;;;;5112071;28;2057;-58
2023/06/27 15:52:13;;;;;;;;;;;;;;;;;;5112452;28;2044;-57
2023/06/27 15:54:40;;;;;;;;;;;;;;;;;;5119979;27;2219;-57
2023/06/27 15:57:07;;;;;;;;;;;;;;;;;;5124545;27;1790;-58
2023/06/27 15:59:34;;;;;;;;;;;;;;;;;;5132880;27;2172;-55
2023/06/27 16:02:01;;;;;;;;;;;;;;;;;;5132355;27;1998;-54
2023/06/27 16:04:29;;;;;;;;;;;;;;;;;;5132951;27;2018;-57
2023/06/27 16:06:56;;;;;;;;;;;;;;;;;;5131520;27;2178;-57
2023/06/27 16:09:24;;;;;;;;;;;;;;;;;;5132627;27;2512;-58
2023/06/27 16:11:52;;;;;;;;;;;;;;;;;;5132658;27;2199;-57
2023/06/27 16:14:19;;;;;;;;;;;;;;;;;;5131981;27;2054;-58
2023/06/27 16:16:46;;;;;;;;;;;;;;;;;;5132358;27;2309;-55
2023/06/27 16:19:13;;;;;;;;;;;;;;;;;;5122655;27;2042;-58
2023/06/27 16:21:40;;;;;;;;;;;;;;;;;;5113951;27;2031;-57
2023/06/27 16:24:08;;;;;;;;;;;;;;;;;;5132330;27;2061;-57
2023/06/27 16:26:35;;;;;;;;;;;;;;;;;;5111560;28;2196;-57
2023/06/27 16:29:03;;;;;;;;;;;;;;;;;;5111653;28;2203;-53
2023/06/27 16:31:30;;;;;;;;;;;;;;;;;;5111329;28;2365;-55
2023/06/27 16:33:59;;;;;;;;;;;;;;;;;;5117551;27;2048;-57
2023/06/27 16:36:26;;;;;;;;;;;;;;;;;;5131637;27;2219;-58
2023/06/27 16:38:53;;;;;;;;;;;;;;;;;;5132065;27;2172;-58
2023/06/27 16:41:21;;;;;;;;;;;;;;;;;;5132226;27;2245;-58
2023/06/27 16:43:48;;;;;;;;;;;;;;;;;;5131455;27;2032;-58
2023/06/27 16:46:16;;;;;;;;;;;;;;;;;;5132010;27;2081;-54
2023/06/27 16:48:44;;;;;;;;;;;;;;;;;;5131494;27;2239;-57
2023/06/27 16:51:13;;;;;;;;;;;;;;;;;;5132009;27;2050;-56
2023/06/27 16:53:41;;;;;;;;;;;;;;;;;;5131392;27;2129;-57
2023/06/27 16:56:08;;;;;;;;;;;;;;;;;;5131559;27;2025;-57
2023/06/27 16:58:35;;;;;;;;;;;;;;;;;;5131927;27;2159;-57
2023/06/27 17:01:03;;;;;;;;;;;;;;;;;;5113322;27;2029;-56
2023/06/27 17:03:30;;;;;;;;;;;;;;;;;;5131666;27;2041;-57
2023/06/27 17:05:57;;;;;;;;;;;;;;;;;;5131135;27;2215;-57
2023/06/27 17:08:25;;;;;;;;;;;;;;;;;;5131539;27;2114;-55
2023/06/27 17:10:52;;;;;;;;;;;;;;;;;;5131367;27;2168;-58
2023/06/27 17:13:19;;;;;;;;;;;;;;;;;;5131160;27;2239;-57
2023/06/27 17:15:49;;;;;;;;;;;;;;;;;;5131480;27;2073;-57
2023/06/27 17:18:16;;;;;;;;;;;;;;;;;;5129508;27;2180;-57
2023/06/27 17:20:43;;;;;;;;;;;;;;;;;;5111067;28;2104;-57
2023/06/27 17:23:11;;;;;;;;;;;;;;;;;;5110449;28;2209;-57